Portada
METAR-TAF:

METAR-TAF

Aeroports :

Batam, Indonèsia

latitud: 01-07-15N, longitud: 104-07-07E, altitud: 38 m

Observació

L'informe es va fer fa 1 hora i 40 minuts, a les 17:00 UTC
Vent 3 kt del Est/Sud-Est
Temperatura 26°C
Humitat 94%
Pressió 1010 hPa
Visibilitat 10 km o més
Escasses núvols a una alçada de 1400 ft

METAR: WIDD 301700Z 11003KT 9999 FEW014 26/25 Q1010 NOSIG

Hora: 01:40 (18:40 UTC)

Pronòstic

L'informe es va fer fa 1 hora i 40 minuts, a les 17:00 UTC
Pronòstic vàlid del 30 a les 18 UTC al 01 a les 18 UTC
Vent kt del Nord
Visibilitat 10 km o més
Escasses núvols a una alçada de 1400 ft
Probabilitat 30% :
Temporalment
l' 30 a les 21 UTC al 30 a les 24 UTC
Vent 5 kt del Sud-Est
Visibilitat: 5000 m
Escasses núvols a una alçada de 1300 ft, Cumulonimbus.
tempesta, pluja

TAF: WIDD 301700Z 3018/0118 00000KT 9999 FEW014 PROB30 TEMPO 3021/3024 14005KT 5000 -TSRA FEW013CB

Observacions i pronòstics meteorològics de més de 4000 aeroports (METAR i TAF).

Les estacions disponibles són els punts grocs i vermells al mapa.

Posi el ratolí al punt desitjat per veure el nom de l'estació.

Feu clic per veure les observacions i els pronòstics meteorològics.

Per canviar el mapa: feu clic els botons verds amb una creu de color negre per apropar; al botó verd amb un guió per allunyar la imatge; o en les fletxes verdes per a mapes adjacents.


METAR-TAF: